createdAt,value
2018-09-08T00:02:13.012Z,2.00
2018-09-08T00:04:41.937Z,2.10
2018-09-08T00:07:17.390Z,2.02
2018-09-08T00:09:46.196Z,2.00
2018-09-08T00:12:15.189Z,2.20
2018-09-08T00:14:43.312Z,1.90
2018-09-08T00:17:17.360Z,1.65
2018-09-08T00:19:52.034Z,2.17
2018-09-08T00:22:26.526Z,1.87
2018-09-08T00:25:04.192Z,1.82
2018-09-08T00:27:39.065Z,2.22
2018-09-08T00:30:09.667Z,2.60
2018-09-08T00:32:39.692Z,2.55
2018-09-08T00:35:08.670Z,2.52
2018-09-08T00:37:37.320Z,2.95
2018-09-08T00:40:07.821Z,2.75
2018-09-08T00:42:36.903Z,3.17
2018-09-08T00:45:06.944Z,3.12
2018-09-08T00:47:36.326Z,2.77
2018-09-08T00:50:05.724Z,2.70
2018-09-08T00:52:34.914Z,3.00
2018-09-08T00:55:03.824Z,2.85
2018-09-08T00:57:32.873Z,3.12
2018-09-08T01:00:01.349Z,2.65
2018-09-08T01:02:31.189Z,3.15
2018-09-08T01:04:59.945Z,3.62
2018-09-08T01:07:30.580Z,3.25
2018-09-08T01:10:02.150Z,3.42
2018-09-08T01:12:31.782Z,3.45
2018-09-08T01:15:00.812Z,2.77
2018-09-08T01:17:29.673Z,3.33
2018-09-08T01:19:59.277Z,3.05
2018-09-08T01:22:29.724Z,3.35
2018-09-08T01:24:58.389Z,3.55
2018-09-08T01:27:27.368Z,3.05
2018-09-08T01:29:56.188Z,3.05
2018-09-08T01:32:24.623Z,3.12
2018-09-08T01:34:54.089Z,3.45
2018-09-08T01:37:22.549Z,2.77
2018-09-08T01:39:51.786Z,3.10
2018-09-08T01:42:23.779Z,2.62
2018-09-08T01:44:52.320Z,3.00
2018-09-08T01:47:21.346Z,2.62
2018-09-08T01:49:50.356Z,2.92
2018-09-08T01:52:19.908Z,3.30
2018-09-08T01:54:49.248Z,2.77
2018-09-08T01:57:18.666Z,3.47
2018-09-08T01:59:48.724Z,3.33
2018-09-08T02:02:17.688Z,2.87
2018-09-08T02:04:46.361Z,3.20
2018-09-08T02:07:15.450Z,3.10
2018-09-08T02:09:44.196Z,2.45
2018-09-08T02:12:13.365Z,2.92
2018-09-08T02:14:41.892Z,3.17
2018-09-08T02:17:11.185Z,3.20
2018-09-08T02:19:39.544Z,2.67
2018-09-08T02:22:09.881Z,2.75
2018-09-08T02:24:38.116Z,2.72
2018-09-08T02:27:07.147Z,2.70
2018-09-08T02:29:35.834Z,3.08
2018-09-08T02:32:04.584Z,2.85
2018-09-08T02:34:34.666Z,2.92
2018-09-08T02:37:03.402Z,2.50
2018-09-08T02:39:32.314Z,2.47
2018-09-08T02:42:01.749Z,2.87
2018-09-08T02:44:31.363Z,2.65
2018-09-08T02:47:00.946Z,2.65
2018-09-08T02:49:42.686Z,3.12
2018-09-08T02:52:11.524Z,2.58
2018-09-08T02:54:39.544Z,2.72
2018-09-08T02:57:07.639Z,3.42
2018-09-08T02:59:36.904Z,2.83
2018-09-08T03:02:04.492Z,3.77
2018-09-08T03:04:33.517Z,3.25
2018-09-08T03:07:05.648Z,2.75
2018-09-08T03:09:34.133Z,2.80
2018-09-08T03:12:02.485Z,3.12
2018-09-08T03:14:30.272Z,3.27
2018-09-08T03:16:58.629Z,3.12
2018-09-08T03:19:25.870Z,2.45
2018-09-08T03:21:54.366Z,2.72
2018-09-08T03:24:22.169Z,3.60
2018-09-08T03:26:49.970Z,3.08
2018-09-08T03:29:18.434Z,3.15
2018-09-08T03:31:46.141Z,2.83
2018-09-08T03:34:13.862Z,2.98
2018-09-08T03:36:41.989Z,3.08
2018-09-08T03:39:09.767Z,2.90
2018-09-08T03:41:37.937Z,3.00
2018-09-08T03:44:06.579Z,3.05
2018-09-08T03:46:34.194Z,2.77
2018-09-08T03:49:01.671Z,2.95
2018-09-08T03:51:29.942Z,3.02
2018-09-08T03:53:57.919Z,3.33
2018-09-08T03:56:27.347Z,3.83
2018-09-08T03:58:55.511Z,5.47
2018-09-08T04:01:23.035Z,4.70
2018-09-08T04:03:51.292Z,5.53
2018-09-08T04:06:20.061Z,6.15
2018-09-08T04:08:49.092Z,7.03
2018-09-08T04:11:19.045Z,7.42
2018-09-08T04:13:47.598Z,8.45
2018-09-08T04:16:16.537Z,8.43
2018-09-08T04:18:45.603Z,8.65
2018-09-08T04:21:14.149Z,7.85
2018-09-08T04:23:42.888Z,7.40
2018-09-08T04:26:11.999Z,5.40
2018-09-08T04:28:41.664Z,4.22
2018-09-08T04:31:10.670Z,3.95
2018-09-08T04:33:40.311Z,3.62
2018-09-08T04:36:09.918Z,3.10
2018-09-08T04:38:38.977Z,3.25
2018-09-08T04:41:08.120Z,3.17
2018-09-08T04:43:38.081Z,3.05
2018-09-08T04:46:08.033Z,2.60
2018-09-08T04:48:37.451Z,2.77
2018-09-08T04:51:06.470Z,2.70
2018-09-08T04:53:35.068Z,2.77
2018-09-08T04:56:03.776Z,2.47
2018-09-08T04:58:32.797Z,3.10
2018-09-08T05:01:01.953Z,2.22
2018-09-08T05:03:30.933Z,2.75
2018-09-08T05:05:59.640Z,2.62
2018-09-08T05:08:28.390Z,2.50
2018-09-08T05:11:00.724Z,2.40
2018-09-08T05:13:30.074Z,2.60
2018-09-08T05:15:59.323Z,2.83
2018-09-08T05:18:28.416Z,2.95
2018-09-08T05:20:57.102Z,3.47
2018-09-08T05:23:26.142Z,2.98
2018-09-08T05:25:56.553Z,2.77
2018-09-08T05:28:24.787Z,3.08
2018-09-08T05:32:18.464Z,3.00
2018-09-08T05:34:47.396Z,2.70
2018-09-08T05:37:16.208Z,2.52
2018-09-08T05:39:46.683Z,2.92
2018-09-08T05:42:15.728Z,2.80
2018-09-08T05:44:44.651Z,2.85
2018-09-08T05:47:13.896Z,2.80
2018-09-08T05:49:42.815Z,2.95
2018-09-08T05:52:11.825Z,2.60
2018-09-08T05:54:40.792Z,2.90
2018-09-08T05:57:09.719Z,2.70
2018-09-08T05:59:38.778Z,3.02
2018-09-08T06:02:08.849Z,2.92
2018-09-08T06:04:37.508Z,2.35
2018-09-08T06:07:06.672Z,2.85
2018-09-08T06:09:35.864Z,2.50
2018-09-08T06:12:05.400Z,2.50
2018-09-08T06:14:34.335Z,2.55
2018-09-08T06:17:04.185Z,2.10
2018-09-08T06:20:57.575Z,2.20
2018-09-08T06:23:28.144Z,2.37
2018-09-08T06:25:56.560Z,2.05
2018-09-08T06:28:25.610Z,2.10
2018-09-08T06:30:54.745Z,2.20
2018-09-08T06:33:23.686Z,2.55
2018-09-08T06:35:52.468Z,2.25
2018-09-08T06:38:21.348Z,2.25
2018-09-08T06:40:50.548Z,1.80
2018-09-08T06:43:20.468Z,1.70
2018-09-08T06:45:50.041Z,1.70
2018-09-08T06:48:18.714Z,1.37
2018-09-08T06:50:47.732Z,1.77
2018-09-08T06:53:16.135Z,1.22
2018-09-08T06:55:45.074Z,1.12
2018-09-08T06:58:14.134Z,1.40
2018-09-08T07:00:43.162Z,1.30
2018-09-08T07:03:11.984Z,1.50
2018-09-08T07:05:40.957Z,1.47
2018-09-08T07:08:09.965Z,1.67
2018-09-08T07:10:39.425Z,1.87
2018-09-08T07:13:08.245Z,1.40
2018-09-08T07:15:37.353Z,1.42
2018-09-08T07:18:06.276Z,1.60
2018-09-08T07:20:35.769Z,1.50
2018-09-08T07:23:05.384Z,1.82
2018-09-08T07:25:34.067Z,1.32
2018-09-08T07:28:02.960Z,1.37
2018-09-08T07:30:34.965Z,1.35
2018-09-08T07:33:04.765Z,1.42
2018-09-08T07:35:33.725Z,1.70
2018-09-08T07:38:17.464Z,1.50
2018-09-08T07:40:53.697Z,1.45
2018-09-08T07:43:22.400Z,1.20
2018-09-08T07:45:52.200Z,1.37
2018-09-08T07:48:30.496Z,1.55
2018-09-08T07:51:15.092Z,1.30
2018-09-08T07:53:48.727Z,1.60
2018-09-08T07:56:40.800Z,1.22
2018-09-08T07:59:15.355Z,1.45
2018-09-08T08:04:45.358Z,1.62
2018-09-08T08:07:16.560Z,1.10
2018-09-08T08:09:55.065Z,1.52
2018-09-08T08:12:35.265Z,1.40
2018-09-08T08:15:04.244Z,1.55
2018-09-08T08:17:38.969Z,1.30
2018-09-08T08:20:08.020Z,1.50
2018-09-08T08:22:42.265Z,1.30
2018-09-08T08:25:12.523Z,1.42
2018-09-08T08:27:41.042Z,1.30
2018-09-08T08:30:23.042Z,1.50
2018-09-08T08:32:52.375Z,1.67
2018-09-08T08:35:23.316Z,1.60
2018-09-08T08:37:53.008Z,1.47
2018-09-08T08:40:27.419Z,1.37
2018-09-08T08:42:58.892Z,1.60
2018-09-08T08:45:28.863Z,1.50
2018-09-08T08:48:05.200Z,1.60
2018-09-08T08:50:45.790Z,1.50
2018-09-08T08:53:27.561Z,1.60
2018-09-08T08:55:56.320Z,1.60
2018-09-08T08:58:24.711Z,1.32
2018-09-08T09:00:54.560Z,1.40
2018-09-08T09:03:23.488Z,1.42
2018-09-08T09:07:17.096Z,1.47
2018-09-08T09:09:51.018Z,1.50
2018-09-08T09:12:19.326Z,1.25
2018-09-08T09:14:48.087Z,1.62
2018-09-08T09:17:16.993Z,1.45
2018-09-08T09:19:57.764Z,1.77
2018-09-08T09:22:38.412Z,1.50
2018-09-08T09:25:07.948Z,1.40
2018-09-08T09:27:44.187Z,1.67
2018-09-08T09:30:13.465Z,1.50
2018-09-08T09:32:42.948Z,1.70
2018-09-08T09:35:14.241Z,1.67
2018-09-08T09:37:42.932Z,1.50
2018-09-08T09:40:12.794Z,1.92
2018-09-08T09:42:41.952Z,1.70
2018-09-08T09:45:11.517Z,1.87
2018-09-08T09:47:40.012Z,1.72
2018-09-08T09:50:09.969Z,1.92
2018-09-08T09:52:39.365Z,1.82
2018-09-08T09:55:08.252Z,1.50
2018-09-08T09:57:37.105Z,1.70
2018-09-08T10:00:07.404Z,1.60
2018-09-08T10:03:07.158Z,1.60
2018-09-08T10:05:36.368Z,1.67
2018-09-08T10:08:05.010Z,1.82
2018-09-08T10:10:34.117Z,1.70
2018-09-08T10:13:03.017Z,1.98
2018-09-08T10:15:32.331Z,2.10
2018-09-08T10:18:01.204Z,1.62
2018-09-08T10:20:30.333Z,1.70
2018-09-08T10:22:59.328Z,1.70
2018-09-08T10:25:28.774Z,1.72
2018-09-08T10:27:59.933Z,1.50
2018-09-08T10:30:29.119Z,1.60
2018-09-08T10:32:59.071Z,1.35
2018-09-08T10:35:27.760Z,1.92
2018-09-08T10:37:56.337Z,1.72
2018-09-08T10:40:25.083Z,1.57
2018-09-08T10:42:55.157Z,1.60
2018-09-08T10:45:24.044Z,1.75
2018-09-08T10:47:53.660Z,1.50
2018-09-08T10:50:22.389Z,1.72
2018-09-08T10:52:51.095Z,1.65
2018-09-08T10:55:19.919Z,1.60
2018-09-08T10:57:48.630Z,1.82
2018-09-08T11:00:17.540Z,1.80
2018-09-08T11:02:46.477Z,1.67
2018-09-08T11:05:15.176Z,1.72
2018-09-08T11:07:44.057Z,1.60
2018-09-08T11:10:12.379Z,1.50
2018-09-08T11:12:42.832Z,1.50
2018-09-08T11:15:11.740Z,1.40
2018-09-08T11:17:41.058Z,1.72
2018-09-08T11:20:10.064Z,1.32
2018-09-08T11:22:38.910Z,1.50
2018-09-08T11:25:07.993Z,1.62
2018-09-08T11:27:36.804Z,1.50
2018-09-08T11:30:06.454Z,1.45
2018-09-08T11:32:35.400Z,1.50
2018-09-08T11:35:04.328Z,1.80
2018-09-08T11:37:33.365Z,1.27
2018-09-08T11:40:05.338Z,1.67
2018-09-08T11:42:34.146Z,1.90
2018-09-08T11:45:02.765Z,1.37
2018-09-08T11:47:31.628Z,1.60
2018-09-08T11:50:00.369Z,1.50
2018-09-08T11:52:29.203Z,1.22
2018-09-08T11:54:57.963Z,1.35
2018-09-08T11:57:26.907Z,1.45
2018-09-08T11:59:56.622Z,1.40
2018-09-08T12:02:25.221Z,1.40
2018-09-08T12:04:54.682Z,1.40
2018-09-08T12:07:23.292Z,1.22
2018-09-08T12:09:52.009Z,1.20
2018-09-08T12:12:20.813Z,1.50
2018-09-08T12:14:51.290Z,1.17
2018-09-08T12:17:20.428Z,1.50
2018-09-08T12:19:50.248Z,1.20
2018-09-08T12:22:18.910Z,1.10
2018-09-08T12:24:47.240Z,1.45
2018-09-08T12:27:16.196Z,1.00
2018-09-08T12:29:45.140Z,1.05
2018-09-08T12:32:13.821Z,1.47
2018-09-08T12:34:42.909Z,1.32
2018-09-08T12:37:11.921Z,1.07
2018-09-08T12:39:40.568Z,1.10
2018-09-08T12:42:09.503Z,1.22
2018-09-08T12:44:38.253Z,1.02
2018-09-08T12:47:07.070Z,1.10
2018-09-08T12:49:35.984Z,1.12
2018-09-08T12:52:05.166Z,1.20
2018-09-08T12:54:34.128Z,1.10
2018-09-08T12:57:02.437Z,1.10
2018-09-08T12:59:31.247Z,1.20
2018-09-08T13:02:00.320Z,1.12
2018-09-08T13:04:29.056Z,1.17
2018-09-08T13:06:57.692Z,1.47
2018-09-08T13:09:26.897Z,1.40
2018-09-08T13:11:55.857Z,1.30
2018-09-08T13:14:24.391Z,1.17
2018-09-08T13:16:54.444Z,1.30
2018-09-08T13:19:22.980Z,1.30
2018-09-08T13:21:51.785Z,1.32
2018-09-08T13:24:21.511Z,1.40
2018-09-08T13:26:50.361Z,1.12
2018-09-08T13:29:21.652Z,1.30
2018-09-08T13:31:51.188Z,1.40
2018-09-08T13:34:19.708Z,1.40
2018-09-08T13:36:48.548Z,1.62
2018-09-08T13:39:17.373Z,1.42
2018-09-08T13:41:45.676Z,1.65
2018-09-08T13:44:16.613Z,1.70
2018-09-08T13:46:46.806Z,1.30
2018-09-08T13:49:15.785Z,1.30
2018-09-08T13:51:44.885Z,1.20
2018-09-08T13:54:14.209Z,1.62
2018-09-08T13:56:43.031Z,1.50
2018-09-08T13:59:12.858Z,1.32
2018-09-08T14:01:41.557Z,1.40
2018-09-08T14:04:10.591Z,1.30
2018-09-08T14:06:39.484Z,1.60
2018-09-08T14:09:08.389Z,1.35
2018-09-08T14:11:37.686Z,1.60
2018-09-08T14:14:06.280Z,1.50
2018-09-08T14:16:34.750Z,1.40
2018-09-08T14:19:03.417Z,1.22
2018-09-08T14:21:32.344Z,1.72
2018-09-08T14:24:01.470Z,1.60
2018-09-08T14:26:30.089Z,1.22
2018-09-08T14:28:58.942Z,1.30
2018-09-08T14:31:27.845Z,1.37
2018-09-08T14:33:56.660Z,1.40
2018-09-08T14:36:25.774Z,1.40
2018-09-08T14:38:54.399Z,1.40
2018-09-08T14:41:23.243Z,1.25
2018-09-08T14:43:52.217Z,1.12
2018-09-08T14:46:21.066Z,1.42
2018-09-08T14:48:49.962Z,1.72
2018-09-08T14:51:18.788Z,1.40
2018-09-08T14:53:48.832Z,1.70
2018-09-08T14:56:18.146Z,1.67
2018-09-08T14:58:47.086Z,1.52
2018-09-08T15:01:15.872Z,1.75
2018-09-08T15:03:44.388Z,1.50
2018-09-08T15:06:13.306Z,1.60
2018-09-08T15:08:42.122Z,1.47
2018-09-08T15:11:11.094Z,1.75
2018-09-08T15:13:40.824Z,1.20
2018-09-08T15:16:09.728Z,1.75
2018-09-08T15:18:38.544Z,1.40
2018-09-08T15:21:07.472Z,1.47
2018-09-08T15:23:36.188Z,1.50
2018-09-08T15:26:07.883Z,1.60
2018-09-08T15:28:36.562Z,1.60
2018-09-08T15:31:05.499Z,1.55
2018-09-08T15:33:34.329Z,1.65
2018-09-08T15:36:03.089Z,1.70
2018-09-08T15:38:33.013Z,1.35
2018-09-08T15:41:02.021Z,1.75
2018-09-08T15:43:31.044Z,1.75
2018-09-08T15:46:03.172Z,1.75
2018-09-08T15:48:32.145Z,1.90
2018-09-08T15:51:06.445Z,1.50
2018-09-08T15:53:34.768Z,1.70
2018-09-08T15:56:03.497Z,1.75
2018-09-08T15:58:32.774Z,1.70
2018-09-08T16:01:04.663Z,1.67
2018-09-08T16:03:36.457Z,1.80
2018-09-08T16:06:06.289Z,1.80
2018-09-08T16:08:35.173Z,2.00
2018-09-08T16:11:04.220Z,1.60
2018-09-08T16:13:33.171Z,1.80
2018-09-08T16:16:02.148Z,1.60
2018-09-08T16:18:31.054Z,1.50
2018-09-08T16:21:00.783Z,1.70
2018-09-08T16:23:35.609Z,1.67
2018-09-08T16:26:07.101Z,1.60
2018-09-08T16:28:38.829Z,1.40
2018-09-08T16:31:07.369Z,1.70
2018-09-08T16:33:36.021Z,1.55
2018-09-08T16:36:05.357Z,1.30
2018-09-08T16:38:49.978Z,1.50
2018-09-08T16:41:19.497Z,1.47
2018-09-08T16:43:48.392Z,1.75
2018-09-08T16:46:17.454Z,1.52
2018-09-08T16:48:46.577Z,1.27
2018-09-08T16:51:15.398Z,1.30
2018-09-08T16:53:44.512Z,1.50
2018-09-08T16:56:14.514Z,1.30
2018-09-08T16:58:42.853Z,1.40
2018-09-08T17:01:11.561Z,1.40
2018-09-08T17:03:40.456Z,1.30
2018-09-08T17:06:09.077Z,1.40
2018-09-08T17:08:38.149Z,1.77
2018-09-08T17:11:06.908Z,1.32
2018-09-08T17:13:35.772Z,1.40
2018-09-08T17:16:05.013Z,1.35
2018-09-08T17:18:34.088Z,1.37
2018-09-08T17:21:03.813Z,1.27
2018-09-08T17:23:32.745Z,1.37
2018-09-08T17:26:01.782Z,1.87
2018-09-08T17:28:30.517Z,1.32
2018-09-08T17:30:59.230Z,1.62
2018-09-08T17:33:28.161Z,1.60
2018-09-08T17:35:57.917Z,1.50
2018-09-08T17:38:26.972Z,1.40
2018-09-08T17:40:55.971Z,1.52
2018-09-08T17:43:24.497Z,1.40
2018-09-08T17:45:53.273Z,1.40
2018-09-08T17:48:21.922Z,1.50
2018-09-08T17:50:51.005Z,1.70
2018-09-08T17:53:19.811Z,1.55
2018-09-08T17:55:48.757Z,1.40
2018-09-08T17:58:17.812Z,1.40
2018-09-08T18:00:46.350Z,1.50
2018-09-08T18:03:15.333Z,1.35
2018-09-08T18:05:44.300Z,1.60
2018-09-08T18:08:17.526Z,1.85
2018-09-08T18:10:46.545Z,1.90
2018-09-08T18:13:15.579Z,1.95
2018-09-08T18:15:44.491Z,1.90
2018-09-08T18:18:13.406Z,2.00
2018-09-08T18:20:42.024Z,1.85
2018-09-08T18:23:11.007Z,1.85
2018-09-08T18:25:39.785Z,1.98
2018-09-08T18:28:08.584Z,1.55
2018-09-08T18:30:37.610Z,1.98
2018-09-08T18:33:06.436Z,1.72
2018-09-08T18:35:35.265Z,1.65
2018-09-08T18:38:03.910Z,1.57
2018-09-08T18:40:32.675Z,1.75
2018-09-08T18:43:01.636Z,1.82
2018-09-08T18:45:30.709Z,2.12
2018-09-08T18:47:59.384Z,1.90
2018-09-08T18:50:28.267Z,1.80
2018-09-08T18:52:57.172Z,2.30
2018-09-08T18:55:26.137Z,2.70
2018-09-08T18:57:54.928Z,2.95
2018-09-08T19:00:23.802Z,2.50
2018-09-08T19:02:52.469Z,2.50
2018-09-08T19:05:21.358Z,2.10
2018-09-08T19:07:50.380Z,2.30
2018-09-08T19:10:19.088Z,1.95
2018-09-08T19:12:47.909Z,2.33
2018-09-08T19:15:17.743Z,2.08
2018-09-08T19:17:46.437Z,1.82
2018-09-08T19:20:20.353Z,1.75
2018-09-08T19:22:48.902Z,1.72
2018-09-08T19:25:17.608Z,1.92
2018-09-08T19:27:46.267Z,2.15
2018-09-08T19:30:15.083Z,1.90
2018-09-08T19:32:43.881Z,1.95
2018-09-08T19:35:18.284Z,2.30
2018-09-08T19:37:46.512Z,1.70
2018-09-08T19:40:20.737Z,2.20
2018-09-08T19:42:49.083Z,1.82
2018-09-08T19:45:17.894Z,2.10
2018-09-08T19:47:51.953Z,1.85
2018-09-08T19:50:20.853Z,2.35
2018-09-08T19:52:54.334Z,1.90
2018-09-08T19:55:22.752Z,2.25
2018-09-08T19:57:56.995Z,2.20
2018-09-08T20:00:25.316Z,2.27
2018-09-08T20:02:54.132Z,2.30
2018-09-08T20:05:23.325Z,2.00
2018-09-08T20:07:51.864Z,2.33
2018-09-08T20:10:20.714Z,2.30
2018-09-08T20:12:49.242Z,2.72
2018-09-08T20:15:17.892Z,2.27
2018-09-08T20:17:46.777Z,2.92
2018-09-08T20:20:15.779Z,3.10
2018-09-08T20:22:44.381Z,2.60
2018-09-08T20:25:12.831Z,2.52
2018-09-08T20:27:41.544Z,2.83
2018-09-08T20:30:10.500Z,3.02
2018-09-08T20:32:39.036Z,3.20
2018-09-08T20:35:07.827Z,2.90
2018-09-08T20:37:36.649Z,2.87
2018-09-08T20:40:05.914Z,2.70
2018-09-08T20:42:34.343Z,2.83
2018-09-08T20:45:03.540Z,2.90
2018-09-08T20:47:31.950Z,2.77
2018-09-08T20:50:00.776Z,2.75
2018-09-08T20:52:29.440Z,3.10
2018-09-08T20:54:58.261Z,3.20
2018-09-08T20:57:27.090Z,3.08
2018-09-08T20:59:56.175Z,2.70
2018-09-08T21:02:24.693Z,3.10
2018-09-08T21:04:54.410Z,2.80
2018-09-08T21:07:23.313Z,3.33
2018-09-08T21:09:52.221Z,3.12
2018-09-08T21:12:21.004Z,3.00
2018-09-08T21:14:50.861Z,3.72
2018-09-08T21:17:19.788Z,3.42
2018-09-08T21:19:48.740Z,3.33
2018-09-08T21:22:17.474Z,3.05
2018-09-08T21:24:46.312Z,3.83
2018-09-08T21:27:14.892Z,3.37
2018-09-08T21:29:44.001Z,3.45
2018-09-08T21:32:13.110Z,3.52
2018-09-08T21:34:43.040Z,3.40
2018-09-08T21:37:12.084Z,3.40
2018-09-08T21:39:40.735Z,3.45
2018-09-08T21:42:09.680Z,3.52
2018-09-08T21:44:38.488Z,3.65
2018-09-08T21:47:07.501Z,3.85
2018-09-08T21:49:36.474Z,3.75
2018-09-08T21:52:05.272Z,3.83
2018-09-08T21:54:34.320Z,4.05
2018-09-08T21:57:03.172Z,4.58
2018-09-08T21:59:32.325Z,4.70
2018-09-08T22:02:01.040Z,4.12
2018-09-08T22:04:29.884Z,4.72
2018-09-08T22:06:58.780Z,4.67
2018-09-08T22:09:27.587Z,4.90
2018-09-08T22:11:56.589Z,4.80
2018-09-08T22:14:25.832Z,5.25
2018-09-08T22:16:54.234Z,4.67
2018-09-08T22:19:23.050Z,4.95
2018-09-08T22:21:51.876Z,5.10
2018-09-08T22:24:20.760Z,5.22
2018-09-08T22:26:50.684Z,5.03
2018-09-08T22:29:19.206Z,5.35
2018-09-08T22:31:48.353Z,5.12
2018-09-08T22:34:17.414Z,5.10
2018-09-08T22:36:46.216Z,5.35
2018-09-08T22:39:15.229Z,5.55
2018-09-08T22:41:44.304Z,5.67
2018-09-08T22:44:12.920Z,5.60
2018-09-08T22:46:41.780Z,5.83
2018-09-08T22:49:11.630Z,5.67
2018-09-08T22:51:40.148Z,6.50
2018-09-08T22:54:08.866Z,6.40
2018-09-08T22:56:37.610Z,6.92
2018-09-08T22:59:06.501Z,6.65
2018-09-08T23:01:35.108Z,7.12
2018-09-08T23:04:03.937Z,7.33
2018-09-08T23:06:32.882Z,7.58
2018-09-08T23:09:01.790Z,7.65
2018-09-08T23:11:30.808Z,7.37
2018-09-08T23:13:59.716Z,7.12
2018-09-08T23:16:27.903Z,7.10
2018-09-08T23:18:56.937Z,7.12
2018-09-08T23:21:25.839Z,7.22
2018-09-08T23:23:54.801Z,6.90
2018-09-08T23:26:23.624Z,6.47
2018-09-08T23:28:52.617Z,7.22
2018-09-08T23:31:21.213Z,7.28
2018-09-08T23:33:50.269Z,7.42
2018-09-08T23:36:19.593Z,7.37
2018-09-08T23:38:48.616Z,7.58
2018-09-08T23:41:17.649Z,7.55
2018-09-08T23:43:47.521Z,6.95
2018-09-08T23:46:16.365Z,6.87
2018-09-08T23:48:45.211Z,7.37
2018-09-08T23:51:14.238Z,7.17
2018-09-08T23:53:43.154Z,7.28
